createdAt,value
2018-09-30T12:09:11.972Z,81024.00
2018-09-30T12:10:11.916Z,86688.00
2018-09-30T12:11:11.899Z,87872.00
2018-09-30T12:12:11.882Z,80032.00
2018-09-30T12:13:11.862Z,79008.00
2018-09-30T12:14:11.848Z,77344.00
2018-09-30T12:15:11.840Z,78144.00
2018-09-30T12:16:11.814Z,79392.00
2018-09-30T12:17:11.798Z,80832.00
2018-09-30T12:18:11.780Z,79488.00
2018-09-30T12:19:11.766Z,76288.00
2018-09-30T12:20:11.758Z,73120.00
2018-09-30T12:21:11.734Z,70592.00
2018-09-30T12:22:11.724Z,72096.00
2018-09-30T12:23:11.707Z,80640.00
2018-09-30T12:24:11.695Z,80480.00
2018-09-30T12:25:11.687Z,78624.00
2018-09-30T12:26:11.662Z,76832.00
2018-09-30T12:27:11.649Z,76576.00
2018-09-30T12:28:11.635Z,76448.00
2018-09-30T12:29:11.619Z,73664.00
2018-09-30T12:30:11.625Z,70496.00
2018-09-30T12:31:11.592Z,74304.00
2018-09-30T12:32:11.577Z,73024.00
2018-09-30T12:33:11.571Z,73920.00
2018-09-30T12:34:11.551Z,72736.00
2018-09-30T12:35:11.541Z,69600.00
2018-09-30T12:36:11.540Z,71712.00
2018-09-30T12:37:11.514Z,70016.00
2018-09-30T12:38:11.500Z,65504.00
2018-09-30T12:39:11.489Z,64416.00
2018-09-30T12:40:11.473Z,69536.00
2018-09-30T12:41:11.459Z,70912.00
2018-09-30T12:42:11.456Z,72160.00
2018-09-30T12:43:11.438Z,75968.00
2018-09-30T12:44:11.423Z,71136.00
2018-09-30T12:45:11.411Z,69504.00
2018-09-30T12:46:11.398Z,74144.00
2018-09-30T12:47:11.394Z,69664.00
2018-09-30T12:48:11.374Z,67456.00
2018-09-30T12:49:11.360Z,71680.00
2018-09-30T12:50:11.349Z,68000.00
2018-09-30T12:51:11.336Z,58720.00
2018-09-30T12:52:11.335Z,61280.00
2018-09-30T12:53:11.312Z,69120.00
2018-09-30T12:54:11.301Z,70336.00
2018-09-30T12:55:11.289Z,69312.00
2018-09-30T12:56:11.279Z,72928.00
2018-09-30T12:57:11.277Z,75264.00
2018-09-30T12:58:11.277Z,74400.00
2018-09-30T12:59:11.241Z,68256.00
2018-09-30T13:00:11.229Z,62080.00
2018-09-30T13:01:11.218Z,72128.00
2018-09-30T13:02:11.217Z,78304.00
2018-09-30T13:03:11.195Z,65088.00
2018-09-30T13:04:11.184Z,59808.00
2018-09-30T13:05:11.172Z,64864.00
2018-09-30T13:06:11.165Z,69312.00
2018-09-30T13:07:11.159Z,74144.00
2018-09-30T13:08:11.135Z,72288.00
2018-09-30T13:09:11.124Z,70848.00
2018-09-30T13:10:11.112Z,73344.00
2018-09-30T13:11:11.103Z,63936.00
2018-09-30T13:12:11.104Z,61600.00
2018-09-30T13:13:11.079Z,65728.00
2018-09-30T13:14:11.069Z,65760.00
2018-09-30T13:15:11.058Z,62656.00
2018-09-30T13:16:11.048Z,61312.00
2018-09-30T13:17:11.033Z,67360.00
2018-09-30T13:18:11.053Z,73856.00
2018-09-30T13:19:11.016Z,66528.00
2018-09-30T13:20:11.002Z,65536.00
2018-09-30T13:21:10.991Z,68320.00
2018-09-30T13:22:10.979Z,67232.00
2018-09-30T13:23:10.969Z,67040.00
2018-09-30T13:24:10.967Z,73920.00
2018-09-30T13:25:10.947Z,69376.00
2018-09-30T13:26:10.937Z,69024.00
2018-09-30T13:27:10.926Z,70784.00
2018-09-30T13:28:10.921Z,66976.00
2018-09-30T13:29:10.912Z,59616.00
2018-09-30T13:30:10.898Z,58144.00
2018-09-30T13:31:10.884Z,55616.00
2018-09-30T13:32:10.877Z,48384.00
2018-09-30T13:33:10.868Z,39104.00
2018-09-30T13:34:10.858Z,39872.00
2018-09-30T13:35:10.844Z,38752.00
2018-09-30T13:36:10.836Z,36320.00
2018-09-30T13:37:10.821Z,34112.00
2018-09-30T13:38:10.813Z,30080.00
2018-09-30T13:39:10.818Z,27776.00
2018-09-30T13:40:10.890Z,27840.00
2018-09-30T13:41:10.913Z,27296.00
2018-09-30T13:42:10.773Z,25344.00
2018-09-30T13:43:10.761Z,24992.00
2018-09-30T13:44:10.751Z,25696.00
2018-09-30T13:45:10.751Z,26816.00
2018-09-30T13:46:10.834Z,28832.00
2018-09-30T13:47:10.724Z,35072.00
2018-09-30T13:48:10.710Z,46944.00
2018-09-30T13:49:10.698Z,52832.00
2018-09-30T13:50:10.688Z,47488.00
2018-09-30T13:51:10.747Z,40960.00
2018-09-30T13:52:10.669Z,37344.00
2018-09-30T13:53:10.661Z,34784.00
2018-09-30T13:54:10.653Z,33920.00
2018-09-30T13:55:10.644Z,34272.00
2018-09-30T13:56:10.642Z,36512.00
2018-09-30T13:57:10.617Z,38624.00
2018-09-30T13:58:10.620Z,39200.00
2018-09-30T13:59:10.613Z,38496.00
2018-09-30T14:00:10.591Z,29248.00
2018-09-30T14:01:10.582Z,15232.00
2018-09-30T14:02:10.589Z,10604.00
2018-09-30T14:03:10.559Z,32672.00
2018-09-30T14:04:10.549Z,48832.00
2018-09-30T14:05:10.541Z,42080.00
2018-09-30T14:06:10.532Z,44608.00
2018-09-30T14:07:10.548Z,49248.00
2018-09-30T14:08:10.509Z,54208.00
2018-09-30T14:09:10.499Z,57280.00
2018-09-30T14:10:10.491Z,54240.00
2018-09-30T14:11:10.482Z,54016.00
2018-09-30T14:12:10.472Z,51040.00
2018-09-30T14:13:10.472Z,47552.00
2018-09-30T14:14:10.471Z,46912.00
2018-09-30T14:15:10.444Z,51104.00
2018-09-30T14:16:10.430Z,53728.00
2018-09-30T14:17:10.429Z,56160.00
2018-09-30T14:18:10.412Z,53984.00
2018-09-30T14:19:10.415Z,48416.00
2018-09-30T14:20:10.393Z,48000.00
2018-09-30T14:21:10.386Z,47712.00
2018-09-30T14:22:10.391Z,50912.00
2018-09-30T14:23:10.370Z,50688.00
2018-09-30T14:24:10.360Z,50976.00
2018-09-30T14:25:10.357Z,51104.00
2018-09-30T14:26:10.343Z,49216.00
2018-09-30T14:27:10.383Z,49312.00
2018-09-30T14:28:10.320Z,48384.00
2018-09-30T14:29:10.315Z,51360.00
2018-09-30T14:30:10.304Z,52064.00
2018-09-30T14:31:10.298Z,52320.00
2018-09-30T14:32:10.289Z,51424.00
2018-09-30T14:33:10.288Z,51008.00
2018-09-30T14:34:10.327Z,51552.00
2018-09-30T14:35:10.269Z,48512.00
2018-09-30T14:36:10.253Z,42176.00
2018-09-30T14:37:10.250Z,39840.00
2018-09-30T14:38:10.245Z,42432.00
2018-09-30T14:39:10.229Z,47168.00
2018-09-30T14:40:10.218Z,47360.00
2018-09-30T14:41:10.213Z,37632.00
2018-09-30T14:42:10.208Z,19456.00
2018-09-30T14:43:10.194Z,9696.00
2018-09-30T14:44:10.178Z,7676.00
2018-09-30T14:45:10.178Z,7012.00
2018-09-30T14:46:10.167Z,6800.00
2018-09-30T14:47:10.167Z,6716.00
2018-09-30T14:48:10.190Z,6676.00
2018-09-30T14:49:10.140Z,6632.00
2018-09-30T14:50:10.129Z,6580.00
2018-09-30T14:51:10.122Z,6536.00
2018-09-30T14:52:10.141Z,6472.00
2018-09-30T14:53:10.101Z,6444.00
2018-09-30T14:54:10.100Z,6416.00
2018-09-30T14:55:10.078Z,6384.00
2018-09-30T14:56:10.069Z,6344.00
2018-09-30T14:57:10.056Z,6344.00
2018-09-30T14:58:10.052Z,6320.00
2018-09-30T14:59:10.034Z,6296.00
2018-09-30T15:00:10.023Z,6296.00
2018-09-30T15:01:10.009Z,6284.00
2018-09-30T15:02:09.996Z,6280.00
2018-09-30T15:03:09.996Z,6276.00
2018-09-30T15:04:09.972Z,6244.00
2018-09-30T15:05:09.961Z,6216.00
2018-09-30T15:06:09.973Z,6180.00
2018-09-30T15:07:09.964Z,6160.00
2018-09-30T15:08:09.936Z,6148.00
2018-09-30T15:09:09.913Z,6132.00
2018-09-30T15:10:09.899Z,6128.00
2018-09-30T15:11:09.886Z,6128.00
2018-09-30T15:12:09.871Z,6120.00
2018-09-30T15:13:09.856Z,6100.00
2018-09-30T15:14:09.856Z,6068.00
2018-09-30T15:15:09.834Z,6040.00
2018-09-30T15:16:09.820Z,6012.00
2018-09-30T15:17:09.807Z,5984.00
2018-09-30T15:18:09.798Z,5932.00
2018-09-30T15:19:09.792Z,5888.00
2018-09-30T15:20:09.764Z,5840.00
2018-09-30T15:21:09.750Z,5792.00
2018-09-30T15:22:09.740Z,5748.00
2018-09-30T15:23:09.723Z,5704.00
2018-09-30T15:24:09.713Z,5668.00
2018-09-30T15:25:09.704Z,5644.00
2018-09-30T15:26:09.683Z,5620.00
2018-09-30T15:27:09.671Z,5580.00
2018-09-30T15:28:09.655Z,5528.00
2018-09-30T15:29:09.642Z,5488.00
2018-09-30T15:30:09.641Z,5452.00
2018-09-30T15:31:09.614Z,5392.00
2018-09-30T15:32:09.603Z,5312.00
2018-09-30T15:33:09.585Z,5264.00
2018-09-30T15:34:09.572Z,5200.00
2018-09-30T15:35:09.559Z,5156.00
2018-09-30T15:36:09.552Z,5092.00
2018-09-30T15:37:09.530Z,5028.00
2018-09-30T15:38:09.514Z,4964.00
2018-09-30T15:39:09.501Z,4896.00
2018-09-30T15:40:09.485Z,4836.00
2018-09-30T15:41:09.480Z,4776.00
2018-09-30T15:42:09.458Z,4724.00
2018-09-30T15:43:09.443Z,4680.00
2018-09-30T15:44:09.428Z,4620.00
2018-09-30T15:45:09.418Z,4572.00
2018-09-30T15:46:09.431Z,4528.00
2018-09-30T15:47:09.384Z,4476.00
2018-09-30T15:48:09.369Z,4436.00
2018-09-30T15:49:09.357Z,4384.00
2018-09-30T15:50:09.344Z,4352.00
2018-09-30T15:51:09.327Z,4312.00
2018-09-30T15:52:09.325Z,4276.00
2018-09-30T15:53:09.296Z,4228.00
2018-09-30T15:54:09.285Z,4180.00
2018-09-30T15:55:09.267Z,4132.00
2018-09-30T15:56:09.252Z,4088.00
2018-09-30T15:57:09.237Z,4036.00
2018-09-30T15:58:09.234Z,3988.00
2018-09-30T15:59:09.206Z,3936.00
2018-09-30T16:00:09.192Z,3892.00
2018-09-30T16:01:09.176Z,3852.00
2018-09-30T16:02:09.162Z,3808.00
2018-09-30T16:03:09.157Z,3760.00
2018-09-30T16:04:09.132Z,3724.00
2018-09-30T16:05:09.116Z,3680.00
2018-09-30T16:06:09.103Z,3636.00
2018-09-30T16:07:09.086Z,3588.00
2018-09-30T16:08:09.082Z,3540.00
2018-09-30T16:09:09.057Z,3492.00
2018-09-30T16:10:09.043Z,3440.00
2018-09-30T16:11:09.027Z,3396.00
2018-09-30T16:12:09.012Z,3348.00
2018-09-30T16:13:09.037Z,3300.00
2018-09-30T16:14:08.980Z,3252.00
2018-09-30T16:15:08.967Z,3192.00
2018-09-30T16:16:08.952Z,3132.00
2018-09-30T16:17:08.934Z,3088.00
2018-09-30T16:18:08.928Z,3048.00
2018-09-30T16:19:08.911Z,2992.00
2018-09-30T16:20:08.885Z,2932.00
2018-09-30T16:21:08.902Z,2868.00
2018-09-30T16:22:08.857Z,2804.00
2018-09-30T16:23:08.848Z,2740.00
2018-09-30T16:24:08.827Z,2672.00
2018-09-30T16:25:08.810Z,2604.00
2018-09-30T16:26:08.795Z,2536.00
2018-09-30T16:27:08.781Z,2480.00
2018-09-30T16:28:08.837Z,2420.00
2018-09-30T16:29:08.749Z,2352.00
2018-09-30T16:30:08.736Z,2288.00
2018-09-30T16:31:08.717Z,2232.00
2018-09-30T16:32:08.701Z,2180.00
2018-09-30T16:33:08.685Z,2128.00
2018-09-30T16:34:08.683Z,2084.00
2018-09-30T16:35:08.713Z,2036.00
2018-09-30T16:36:08.636Z,1988.00
2018-09-30T16:37:08.621Z,1932.00
2018-09-30T16:38:08.606Z,1876.00
2018-09-30T16:39:08.590Z,1824.00
2018-09-30T16:40:08.582Z,1772.00
2018-09-30T16:41:08.556Z,1720.00
2018-09-30T16:42:08.546Z,1668.00
2018-09-30T16:43:08.528Z,1612.00
2018-09-30T16:44:08.510Z,1556.00
2018-09-30T16:45:08.506Z,1496.00
2018-09-30T16:46:08.478Z,1440.00
2018-09-30T16:47:08.462Z,1388.00
2018-09-30T16:48:08.444Z,1340.00
2018-09-30T16:49:08.430Z,1288.00
2018-09-30T16:50:08.426Z,1236.00
2018-09-30T16:51:08.396Z,1184.00
2018-09-30T16:52:08.378Z,1132.00
2018-09-30T16:53:08.364Z,1084.00
2018-09-30T16:54:08.347Z,1016.00
2018-09-30T16:55:08.362Z,940.00
2018-09-30T16:56:08.314Z,872.00
2018-09-30T16:57:08.298Z,820.00
2018-09-30T16:58:08.283Z,768.00
2018-09-30T16:59:08.264Z,724.00
2018-09-30T17:00:08.251Z,680.00
2018-09-30T17:01:09.059Z,644.00
2018-09-30T17:02:08.216Z,608.00
2018-09-30T17:03:08.213Z,564.00
2018-09-30T17:04:08.182Z,528.00
2018-09-30T17:05:08.165Z,488.00
2018-09-30T17:06:08.182Z,448.00
2018-09-30T17:07:08.133Z,408.00
2018-09-30T17:08:08.117Z,376.00
2018-09-30T17:09:08.101Z,344.00
2018-09-30T17:10:08.085Z,312.00
2018-09-30T17:11:08.067Z,284.00
2018-09-30T17:12:08.103Z,260.00
2018-09-30T17:13:08.035Z,236.00
2018-09-30T17:14:08.015Z,208.00
2018-09-30T17:15:08.001Z,188.00
2018-09-30T17:16:08.080Z,172.00
2018-09-30T17:17:07.977Z,148.00
2018-09-30T17:18:07.951Z,136.00
2018-09-30T17:19:08.024Z,120.00
2018-09-30T17:20:07.917Z,104.00
2018-09-30T17:21:07.899Z,92.00
2018-09-30T17:22:07.903Z,84.00
2018-09-30T17:23:07.865Z,72.00
2018-09-30T17:24:07.845Z,64.00
2018-09-30T17:25:07.828Z,56.00
2018-09-30T17:26:07.823Z,44.00
2018-09-30T17:27:07.796Z,40.00
2018-09-30T17:28:07.787Z,32.00
2018-09-30T17:29:07.758Z,28.00
2018-09-30T17:30:07.741Z,24.00
2018-09-30T17:31:07.764Z,20.00
2018-09-30T17:32:07.713Z,16.00
2018-09-30T17:33:07.706Z,16.00
2018-09-30T17:34:07.673Z,12.00
2018-09-30T17:35:07.657Z,8.00
2018-09-30T17:36:07.638Z,8.00
2018-09-30T17:37:07.622Z,8.00
2018-09-30T17:38:07.603Z,4.00
2018-09-30T17:39:07.594Z,4.00
2018-09-30T17:40:07.574Z,4.00
2018-09-30T17:41:07.554Z,0.00
2018-09-30T17:42:07.533Z,4.00
2018-09-30T17:43:07.521Z,4.00
2018-09-30T17:44:07.508Z,4.00
2018-09-30T17:45:07.478Z,0.00
2018-09-30T17:46:07.461Z,0.00
2018-09-30T17:47:07.445Z,0.00
2018-09-30T17:48:07.424Z,0.00
2018-09-30T17:49:07.440Z,0.00
2018-09-30T17:50:07.390Z,0.00
2018-09-30T17:51:07.411Z,0.00
2018-09-30T17:52:07.354Z,0.00
2018-09-30T17:53:07.336Z,0.00
2018-09-30T17:54:07.324Z,0.00
2018-09-30T17:55:07.312Z,0.00
2018-09-30T17:56:07.283Z,0.00
2018-09-30T17:57:07.264Z,0.00
2018-09-30T17:58:07.309Z,0.00
2018-09-30T17:59:07.229Z,0.00
2018-09-30T18:00:07.225Z,0.00
2018-09-30T18:01:07.217Z,0.00
2018-09-30T18:02:07.174Z,0.00
2018-09-30T18:03:07.155Z,0.00
2018-09-30T18:04:07.188Z,0.00
2018-09-30T18:05:07.119Z,0.00
2018-09-30T18:06:07.111Z,0.00
2018-09-30T18:07:07.083Z,0.00
2018-09-30T18:08:07.064Z,0.00
2018-09-30T18:09:07.046Z,0.00
2018-09-30T18:10:07.030Z,0.00
2018-09-30T18:11:07.113Z,0.00
2018-09-30T18:12:06.990Z,0.00
2018-09-30T18:13:06.973Z,0.00
2018-09-30T18:14:06.954Z,0.00
2018-09-30T18:15:06.935Z,0.00
2018-09-30T18:16:06.937Z,0.00
2018-09-30T18:17:06.907Z,0.00
2018-09-30T18:18:06.900Z,0.00
2018-09-30T18:19:06.857Z,0.00
2018-09-30T18:20:06.842Z,0.00
2018-09-30T18:21:06.823Z,0.00
2018-09-30T18:22:06.814Z,0.00
2018-09-30T18:23:06.788Z,0.00
2018-09-30T18:24:06.771Z,0.00
2018-09-30T18:25:06.753Z,0.00
2018-09-30T18:26:06.738Z,0.00
2018-09-30T18:27:06.736Z,0.00
2018-09-30T18:28:06.725Z,0.00
2018-09-30T18:29:06.676Z,0.00
2018-09-30T18:30:06.655Z,0.00
2018-09-30T18:31:06.636Z,0.00
2018-09-30T18:32:06.626Z,0.00
2018-09-30T18:33:06.598Z,0.00
2018-09-30T18:34:06.606Z,0.00
2018-09-30T18:35:06.560Z,0.00
2018-09-30T18:36:06.557Z,0.00
2018-09-30T18:37:06.541Z,0.00
2018-09-30T18:38:06.503Z,0.00
2018-09-30T18:39:06.495Z,0.00
2018-09-30T18:40:06.506Z,0.00
2018-09-30T18:41:06.445Z,0.00
2018-09-30T18:42:06.434Z,0.00
2018-09-30T18:43:06.408Z,0.00
2018-09-30T18:44:06.390Z,0.00
2018-09-30T18:45:06.373Z,0.00
2018-09-30T18:46:06.351Z,0.00
2018-09-30T18:47:06.337Z,0.00
2018-09-30T18:48:06.310Z,0.00
2018-09-30T18:49:06.291Z,0.00
2018-09-30T18:50:06.274Z,0.00
2018-09-30T18:51:06.255Z,0.00
2018-09-30T18:52:06.247Z,0.00
2018-09-30T18:53:06.217Z,0.00
2018-09-30T18:54:06.196Z,0.00
2018-09-30T18:55:06.176Z,0.00
2018-09-30T18:56:06.280Z,0.00
2018-09-30T18:57:06.139Z,0.00
2018-09-30T18:58:06.125Z,0.00
2018-09-30T18:59:06.097Z,0.00
2018-09-30T19:00:06.079Z,0.00
2018-09-30T19:01:06.060Z,0.00
2018-09-30T19:02:06.041Z,0.00
2018-09-30T19:03:06.035Z,0.00
2018-09-30T19:04:05.998Z,0.00
2018-09-30T19:05:05.982Z,0.00
2018-09-30T19:06:05.971Z,0.00
2018-09-30T19:07:05.943Z,0.00
2018-09-30T19:08:05.934Z,0.00
2018-09-30T19:09:05.901Z,0.00
2018-09-30T19:10:05.882Z,0.00
2018-09-30T19:11:05.862Z,0.00
2018-09-30T19:12:05.898Z,0.00
2018-09-30T19:13:05.830Z,0.00
2018-09-30T19:14:05.804Z,0.00
2018-09-30T19:15:05.841Z,0.00
2018-09-30T19:16:05.850Z,0.00
2018-09-30T19:17:05.743Z,0.00
2018-09-30T19:18:05.732Z,0.00
2018-09-30T19:19:05.718Z,0.00
2018-09-30T19:20:05.688Z,0.00
2018-09-30T19:21:05.664Z,0.00
2018-09-30T19:22:05.719Z,0.00
2018-09-30T19:23:05.634Z,0.00
2018-09-30T19:24:05.603Z,0.00
2018-09-30T19:25:05.638Z,0.00
2018-09-30T19:26:05.563Z,0.00
2018-09-30T19:27:05.545Z,0.00
2018-09-30T19:28:05.531Z,0.00
2018-09-30T19:29:05.502Z,0.00
2018-09-30T19:30:05.544Z,0.00
2018-09-30T19:31:05.463Z,0.00
2018-09-30T19:32:05.440Z,0.00
2018-09-30T19:33:05.457Z,0.00
2018-09-30T19:34:05.403Z,0.00
2018-09-30T19:35:05.384Z,0.00
2018-09-30T19:36:05.387Z,0.00
2018-09-30T19:37:05.340Z,0.00
2018-09-30T19:38:05.322Z,0.00
2018-09-30T19:39:05.376Z,0.00
2018-09-30T19:42:51.593Z,0.00
2018-09-30T19:43:49.902Z,0.00
2018-09-30T19:44:49.876Z,0.00
2018-09-30T19:45:49.855Z,0.00
2018-09-30T19:46:49.848Z,0.00
2018-09-30T19:47:49.815Z,0.00
2018-09-30T19:48:49.804Z,0.00
2018-09-30T19:49:49.776Z,0.00
2018-09-30T19:50:49.752Z,0.00
2018-09-30T19:51:49.746Z,0.00
2018-09-30T19:52:49.712Z,0.00
2018-09-30T19:53:49.737Z,0.00
2018-09-30T19:54:49.673Z,0.00
2018-09-30T19:55:49.652Z,0.00
2018-09-30T19:56:49.649Z,0.00
2018-09-30T19:57:49.608Z,0.00
2018-09-30T19:58:49.590Z,0.00
2018-09-30T19:59:49.568Z,0.00
2018-09-30T20:00:49.549Z,0.00
2018-09-30T20:01:49.527Z,0.00
2018-09-30T20:02:49.516Z,0.00
2018-09-30T20:03:49.482Z,0.00
2018-09-30T20:04:49.460Z,0.00
2018-09-30T20:05:49.443Z,0.00
2018-09-30T20:06:49.424Z,0.00
2018-09-30T20:07:49.412Z,0.00
2018-09-30T20:08:49.382Z,0.00
2018-09-30T20:09:49.360Z,0.00
2018-09-30T20:10:49.342Z,0.00
2018-09-30T20:11:49.325Z,0.00
2018-09-30T20:12:49.310Z,0.00
2018-09-30T20:13:49.282Z,0.00
2018-09-30T20:14:49.257Z,0.00
2018-09-30T20:15:49.237Z,0.00
2018-09-30T20:16:49.214Z,0.00
2018-09-30T20:17:49.217Z,0.00
2018-09-30T20:18:49.174Z,0.00
2018-09-30T20:19:49.156Z,0.00
2018-09-30T20:20:49.164Z,0.00
2018-09-30T20:21:49.110Z,0.00
2018-09-30T20:22:49.089Z,0.00
2018-09-30T20:23:49.079Z,0.00
2018-09-30T20:24:49.069Z,0.00
2018-09-30T20:25:49.024Z,0.00
2018-09-30T20:26:49.012Z,0.00
2018-09-30T20:27:48.981Z,0.00
2018-09-30T20:28:49.057Z,0.00
2018-09-30T20:29:48.945Z,0.00
2018-09-30T20:30:48.919Z,0.00
2018-09-30T20:31:48.899Z,0.00
2018-09-30T20:32:48.880Z,0.00
2018-09-30T20:33:48.875Z,0.00
2018-09-30T20:34:48.842Z,0.00
2018-09-30T20:35:48.815Z,0.00
2018-09-30T20:36:48.794Z,0.00
2018-09-30T20:37:48.772Z,0.00
2018-09-30T20:38:48.858Z,0.00
2018-09-30T20:39:48.734Z,0.00
2018-09-30T20:40:48.708Z,0.00
2018-09-30T20:41:48.687Z,0.00
2018-09-30T20:42:48.666Z,0.00
2018-09-30T20:43:48.647Z,0.00
2018-09-30T20:44:48.633Z,0.00
2018-09-30T20:45:48.606Z,0.00
2018-09-30T20:46:48.583Z,0.00
2018-09-30T20:47:48.559Z,0.00
2018-09-30T20:48:48.582Z,0.00
2018-09-30T20:49:48.533Z,0.00
2018-09-30T20:50:48.496Z,0.00
2018-09-30T20:51:48.474Z,0.00
2018-09-30T20:52:48.460Z,0.00
2018-09-30T20:53:48.439Z,0.00
2018-09-30T20:54:48.426Z,0.00
2018-09-30T20:55:48.401Z,0.00
2018-09-30T20:56:48.376Z,0.00
2018-09-30T20:57:48.348Z,0.00
2018-09-30T20:58:48.326Z,0.00
2018-09-30T20:59:48.327Z,0.00
2018-09-30T21:00:48.290Z,0.00
2018-09-30T21:01:48.264Z,0.00
2018-09-30T21:02:48.253Z,0.00
2018-09-30T21:03:48.227Z,0.00
2018-09-30T21:04:48.262Z,0.00
2018-09-30T21:05:48.180Z,0.00
2018-09-30T21:06:48.158Z,0.00
2018-09-30T21:07:48.139Z,0.00
2018-09-30T21:08:48.116Z,0.00
2018-09-30T21:09:48.100Z,0.00
2018-09-30T21:10:48.098Z,0.00
2018-09-30T21:11:48.056Z,0.00
2018-09-30T21:12:48.029Z,0.00
2018-09-30T21:13:48.009Z,0.00
2018-09-30T21:14:47.988Z,0.00
2018-09-30T21:15:47.976Z,0.00
2018-09-30T21:16:47.946Z,0.00
2018-09-30T21:17:47.925Z,0.00
2018-09-30T21:18:47.950Z,0.00
2018-09-30T21:19:47.886Z,0.00
2018-09-30T21:20:47.896Z,0.00
2018-09-30T21:21:47.841Z,0.00
2018-09-30T21:22:47.819Z,0.00
2018-09-30T21:23:47.797Z,0.00
2018-09-30T21:24:47.774Z,0.00
2018-09-30T21:25:47.753Z,0.00
2018-09-30T21:26:47.745Z,0.00
2018-09-30T21:27:47.710Z,0.00
2018-09-30T21:28:47.691Z,0.00
2018-09-30T21:29:47.670Z,0.00
2018-09-30T21:30:47.648Z,0.00
2018-09-30T21:31:47.636Z,0.00
2018-09-30T21:32:47.605Z,0.00
2018-09-30T21:33:47.582Z,0.00
2018-09-30T21:34:47.564Z,0.00
2018-09-30T21:35:47.542Z,0.00
2018-09-30T21:36:47.527Z,0.00
2018-09-30T21:37:47.497Z,0.00
2018-09-30T21:38:47.477Z,0.00
2018-09-30T21:39:47.453Z,0.00
2018-09-30T21:40:47.435Z,0.00
2018-09-30T21:41:47.449Z,0.00
2018-09-30T21:42:47.389Z,0.00
2018-09-30T21:43:47.369Z,0.00
2018-09-30T21:44:47.347Z,0.00
2018-09-30T21:45:47.325Z,0.00
2018-09-30T21:46:47.304Z,0.00
2018-09-30T21:47:47.290Z,0.00
2018-09-30T21:48:47.331Z,0.00
2018-09-30T21:49:47.238Z,0.00
2018-09-30T21:50:47.218Z,0.00
2018-09-30T21:51:47.209Z,0.00
2018-09-30T21:52:47.176Z,0.00
2018-09-30T21:53:47.153Z,0.00
2018-09-30T21:54:47.130Z,0.00
2018-09-30T21:55:47.110Z,0.00
2018-09-30T21:56:47.090Z,0.00
2018-09-30T21:57:47.077Z,0.00
2018-09-30T21:58:47.044Z,0.00
2018-09-30T21:59:47.023Z,0.00
2018-09-30T22:00:47.001Z,0.00
2018-09-30T22:01:47.003Z,0.00
2018-09-30T22:02:46.968Z,0.00
2018-09-30T22:03:46.937Z,0.00
2018-09-30T22:04:46.913Z,0.00
2018-09-30T22:05:46.891Z,0.00
2018-09-30T22:06:46.871Z,0.00
2018-09-30T22:07:46.857Z,0.00
2018-09-30T22:08:46.829Z,0.00
2018-09-30T22:09:46.809Z,0.00
2018-09-30T22:10:46.786Z,0.00
2018-09-30T22:11:46.761Z,0.00
2018-09-30T22:12:46.752Z,0.00
2018-09-30T22:13:46.717Z,0.00
2018-09-30T22:14:46.699Z,0.00
2018-09-30T22:15:46.672Z,0.00
2018-09-30T22:16:46.651Z,0.00
2018-09-30T22:17:46.638Z,0.00
2018-09-30T22:18:46.608Z,0.00
2018-09-30T22:19:46.587Z,0.00
2018-09-30T22:20:46.566Z,0.00
2018-09-30T22:21:46.542Z,0.00
2018-09-30T22:22:46.532Z,0.00
2018-09-30T22:23:46.499Z,0.00
2018-09-30T22:24:46.477Z,0.00
2018-09-30T22:25:46.456Z,0.00
2018-09-30T22:26:46.455Z,0.00
2018-09-30T22:27:46.424Z,0.00
2018-09-30T22:28:46.389Z,0.00
2018-09-30T22:29:46.368Z,0.00
2018-09-30T22:30:46.346Z,0.00
2018-09-30T22:31:46.325Z,0.00
2018-09-30T22:32:46.312Z,0.00
2018-09-30T22:33:46.284Z,0.00
2018-09-30T22:34:46.262Z,0.00
2018-09-30T22:35:46.241Z,0.00
2018-09-30T22:36:46.215Z,0.00
2018-09-30T22:37:46.204Z,0.00
2018-09-30T22:38:46.173Z,0.00
2018-09-30T22:39:46.151Z,0.00
2018-09-30T22:40:46.130Z,0.00
2018-09-30T22:41:46.108Z,0.00
2018-09-30T22:42:46.096Z,0.00
2018-09-30T22:43:46.064Z,0.00
2018-09-30T22:44:46.042Z,0.00
2018-09-30T22:45:46.022Z,0.00
2018-09-30T22:46:45.998Z,0.00
2018-09-30T22:47:45.988Z,0.00
2018-09-30T22:48:45.953Z,0.00
2018-09-30T22:49:45.931Z,0.00
2018-09-30T22:50:45.910Z,0.00
2018-09-30T22:51:45.888Z,0.00
2018-09-30T22:52:45.883Z,0.00
2018-09-30T22:53:45.845Z,0.00
2018-09-30T22:54:45.826Z,0.00
2018-09-30T22:55:45.801Z,0.00
2018-09-30T22:56:45.780Z,0.00
2018-09-30T22:57:45.761Z,0.00
2018-09-30T22:58:45.744Z,0.00
2018-09-30T22:59:45.713Z,0.00
2018-09-30T23:00:45.691Z,0.00
2018-09-30T23:01:45.670Z,0.00
2018-09-30T23:02:45.648Z,0.00
2018-09-30T23:03:45.639Z,0.00
2018-09-30T23:04:45.628Z,0.00
2018-09-30T23:05:45.583Z,0.00
2018-09-30T23:06:45.564Z,0.00
2018-09-30T23:07:45.541Z,0.00
2018-09-30T23:08:45.526Z,0.00
2018-09-30T23:09:45.499Z,0.00
2018-09-30T23:10:45.476Z,0.00
2018-09-30T23:11:45.456Z,0.00
2018-09-30T23:12:45.431Z,0.00
2018-09-30T23:13:45.429Z,0.00
2018-09-30T23:14:45.390Z,0.00
2018-09-30T23:15:45.368Z,0.00
2018-09-30T23:16:45.344Z,0.00
2018-09-30T23:17:45.327Z,0.00
2018-09-30T23:18:45.303Z,0.00
2018-09-30T23:19:45.288Z,0.00
2018-09-30T23:20:45.265Z,0.00
2018-09-30T23:21:45.237Z,0.00
2018-09-30T23:22:45.217Z,0.00
2018-09-30T23:23:45.192Z,0.00
2018-09-30T23:24:45.184Z,0.00
2018-09-30T23:25:45.151Z,0.00
2018-09-30T23:26:45.128Z,0.00
2018-09-30T23:27:45.106Z,0.00
2018-09-30T23:28:45.086Z,0.00
2018-09-30T23:29:45.078Z,0.00
2018-09-30T23:30:45.044Z,0.00
2018-09-30T23:31:45.018Z,0.00
2018-09-30T23:32:44.996Z,0.00
2018-09-30T23:33:44.977Z,0.00
